Current Conditions
Partly Cloudy
Conditions



Pressure
1006.92 (hPa) - 29.73 (inHG)
Visibility

10.0 (km) - 6.2 (miles)
   Temperature
10  °C
50°F
7  °C
Dewpoint
82  %
 Humidity
   Wind Speed
32  km/h
17  kts
20  mph
8.9  m/s
   Wind Direction
 270°
Due West
   Airport Data
EHAM
Location Amsterdam Schiphol 25 km (15.54 mi)
Metar :EHAM 070325Z 27017KT 9999 FEW016 SCT021 10/07 Q1007 NOSIG
Sat 7th December 04:25 am
   Raw Metar Info
Raw METAR is the most common format in the world for the transmission of observational weather data. It is highly standardized through the International Civil Aviation Organization (ICAO), which allows it to be understood throughout most of the world.
   API Info
Data Provided by
https://www.checkwx.com/weather/EHAM
   © Info
CSS/SVG/PHP scripts were developed by weather34.com for use in the weather34 template © 2015-2019

Guide Info provided by Metar-Wikipedia